Time;durP1;ratioP1;P1;durP2;ratioP2;P2;SDS_P1;SDS_P2;PMS_P1;PMS_P2;Temp;Humidity;BMP_temperature;BMP_pressure;BME280_temperature;BME280_humidity;BME280_pressure;Samples;Min_cycle;Max_cycle;Signal;HPM_P1;HPM_P2
2023/06/01 00:00:10;;;;;;;333.03;165.23;;;;;;;19.84;87.13;99646.31;340446;29;1194;-76
2023/06/01 00:00:20;;;;;;;331.25;163.35;;;;;;;19.85;87.04;99647.16;340818;28;1506;-76
2023/06/01 00:00:31;;;;;;;328.00;162.55;;;;;;;19.85;87.24;99647.16;341946;28;1455;-76
2023/06/01 00:00:41;;;;;;;326.23;162.93;;;;;;;19.83;86.82;99649.94;342001;28;1128;-76
2023/06/01 00:00:56;;;;;;;324.27;160.20;;;;;;;19.84;87.25;99650.78;339226;29;1395;-76
2023/06/01 00:01:06;;;;;;;322.95;158.50;;;;;;;19.83;87.13;99646.44;339496;29;1522;-76
2023/06/01 00:01:16;;;;;;;323.87;160.27;;;;;;;19.81;87.27;99648.38;340710;29;877;-76
2023/06/01 00:01:32;;;;;;;324.20;161.32;;;;;;;19.81;87.00;99645.72;340669;29;1141;-76
2023/06/01 00:01:43;;;;;;;323.65;163.00;;;;;;;19.82;87.01;99647.41;339277;29;960;-76
2023/06/01 00:01:53;;;;;;;327.27;166.10;;;;;;;19.80;87.16;99647.53;337926;29;1233;-76
2023/06/01 00:02:04;;;;;;;328.33;166.05;;;;;;;19.82;87.14;99647.41;339339;29;945;-76
2023/06/01 00:02:14;;;;;;;328.33;164.40;;;;;;;19.81;87.11;99649.22;340593;29;1331;-76
2023/06/01 00:02:25;;;;;;;327.25;160.73;;;;;;;19.82;87.71;99652.72;340075;29;906;-76
2023/06/01 00:02:36;;;;;;;327.45;160.93;;;;;;;19.80;87.39;99652.00;339544;29;1346;-76
2023/06/01 00:02:46;;;;;;;327.77;162.37;;;;;;;19.80;87.47;99644.00;339448;29;802;-76
2023/06/01 00:02:57;;;;;;;326.83;163.90;;;;;;;19.78;87.54;99641.47;336585;29;1435;-76
2023/06/01 00:03:07;;;;;;;326.53;164.77;;;;;;;19.78;87.55;99645.94;338660;28;2012;-76
2023/06/01 00:03:17;;;;;;;327.50;165.43;;;;;;;19.79;87.13;99647.63;339427;29;905;-76
2023/06/01 00:03:29;;;;;;;328.40;163.53;;;;;;;19.78;87.38;99653.91;338059;29;1741;-77
2023/06/01 00:03:39;;;;;;;326.98;162.82;;;;;;;19.80;87.12;99649.34;340916;28;1440;-77
2023/06/01 00:03:50;;;;;;;327.50;162.93;;;;;;;19.79;87.29;99652.94;341882;28;1365;-77
2023/06/01 00:04:01;;;;;;;325.63;161.48;;;;;;;19.78;87.61;99645.94;338122;29;794;-77
2023/06/01 00:04:11;;;;;;;328.93;163.37;;;;;;;19.77;87.45;99645.09;335754;29;822;-77
2023/06/01 00:04:21;;;;;;;327.85;162.40;;;;;;;19.77;87.42;99649.56;336949;29;1239;-77
2023/06/01 00:04:32;;;;;;;327.53;163.20;;;;;;;19.76;87.29;99643.41;335473;29;743;-77
2023/06/01 00:04:42;;;;;;;325.30;163.00;;;;;;;19.77;87.42;99649.56;333934;29;1436;-76
2023/06/01 00:04:53;;;;;;;330.93;164.83;;;;;;;19.77;87.14;99644.25;333221;29;2364;-76
2023/06/01 00:05:04;;;;;;;334.25;164.43;;;;;;;19.77;87.21;99650.41;331673;29;1264;-76
2023/06/01 00:05:14;;;;;;;335.85;162.65;;;;;;;19.77;87.04;99645.09;326405;30;1216;-76
2023/06/01 00:05:24;;;;;;;332.90;162.07;;;;;;;19.76;87.40;99643.41;326318;30;2090;-76
2023/06/01 00:05:35;;;;;;;331.13;162.50;;;;;;;19.77;87.02;99645.09;325122;30;2129;-76
2023/06/01 00:05:45;;;;;;;329.63;162.40;;;;;;;19.77;87.29;99644.25;325579;30;1352;-76
2023/06/01 00:05:56;;;;;;;327.73;161.87;;;;;;;19.77;86.93;99649.56;325405;30;1788;-76
2023/06/01 00:06:06;;;;;;;331.95;161.95;;;;;;;19.77;87.00;99645.09;325809;30;1340;-77
2023/06/01 00:06:17;;;;;;;331.93;163.37;;;;;;;19.77;87.05;99649.56;325631;30;855;-77
2023/06/01 00:06:28;;;;;;;329.95;161.85;;;;;;;19.78;86.96;99645.94;321123;30;1119;-77
2023/06/01 00:06:39;;;;;;;325.38;160.35;;;;;;;19.77;87.23;99646.91;321678;30;1994;-77
2023/06/01 00:06:49;;;;;;;324.25;157.93;;;;;;;19.78;87.19;99640.63;323117;30;2006;-77
2023/06/01 00:07:01;;;;;;;321.08;156.73;;;;;;;19.77;86.93;99641.59;324219;30;1249;-77
2023/06/01 00:07:11;;;;;;;323.92;158.27;;;;;;;19.78;87.05;99648.59;321448;30;2435;-77
2023/06/01 00:07:23;;;;;;;327.90;161.10;;;;;;;19.76;87.43;99645.22;321212;30;2537;-77
2023/06/01 00:07:34;;;;;;;330.17;161.02;;;;;;;19.77;86.96;99649.56;321683;30;2863;-77
2023/06/01 00:07:45;;;;;;;325.40;159.77;;;;;;;19.78;86.85;99645.94;324299;30;912;-77
2023/06/01 00:07:56;;;;;;;323.58;159.55;;;;;;;19.77;87.21;99645.09;323710;30;2801;-77
2023/06/01 00:08:06;;;;;;;324.40;162.52;;;;;;;19.77;87.25;99645.09;321708;30;2017;-76
2023/06/01 00:08:17;;;;;;;325.65;161.82;;;;;;;19.76;87.20;99643.41;323220;30;911;-76
2023/06/01 00:08:27;;;;;;;325.87;161.00;;;;;;;19.76;86.97;99647.88;320321;30;1353;-76
2023/06/01 00:08:37;;;;;;;325.90;159.80;;;;;;;19.76;87.23;99639.91;321020;30;2217;-76
2023/06/01 00:08:48;;;;;;;327.80;161.88;;;;;;;19.77;87.32;99649.56;317465;31;1363;-76
2023/06/01 00:09:02;;;;;;;326.37;162.77;;;;;;;19.76;87.10;99653.19;318000;30;3257;-76
2023/06/01 00:09:12;;;;;;;329.10;164.10;;;;;;;19.74;86.78;99644.50;314537;31;2867;-76
2023/06/01 00:09:22;;;;;;;329.55;164.48;;;;;;;19.75;87.08;99647.03;316269;30;3381;-76
2023/06/01 00:09:33;;;;;;;330.43;165.87;;;;;;;19.76;87.05;99653.19;318462;31;1808;-76
2023/06/01 00:09:43;;;;;;;332.00;166.17;;;;;;;19.76;87.03;99645.22;309057;31;3437;-76
2023/06/01 00:09:54;;;;;;;328.88;163.00;;;;;;;19.75;87.17;99646.19;313852;30;3556;-76
2023/06/01 00:10:05;;;;;;;328.83;160.93;;;;;;;19.74;87.11;99642.69;316915;31;3298;-76
2023/06/01 00:10:15;;;;;;;327.83;161.10;;;;;;;19.75;87.13;99641.72;313649;31;1738;-76
2023/06/01 00:10:26;;;;;;;327.42;161.93;;;;;;;19.76;87.37;99645.22;308563;31;2582;-76
2023/06/01 00:10:36;;;;;;;327.93;163.37;;;;;;;19.75;87.05;99640.88;307697;31;2313;-77
2023/06/01 00:10:46;;;;;;;323.83;162.65;;;;;;;19.77;87.02;99641.59;308341;32;1251;-77
2023/06/01 00:10:57;;;;;;;325.10;161.83;;;;;;;19.76;87.11;99647.88;307551;31;3180;-76
2023/06/01 00:11:07;;;;;;;322.88;160.20;;;;;;;19.76;87.38;99642.56;307866;31;3903;-76
2023/06/01 00:11:18;;;;;;;326.60;162.43;;;;;;;19.76;86.93;99645.22;310714;31;894;-76
2023/06/01 00:11:28;;;;;;;327.03;165.37;;;;;;;19.77;87.09;99644.25;306158;31;4108;-76
2023/06/01 00:11:38;;;;;;;326.50;165.15;;;;;;;19.75;86.95;99647.03;305059;32;4251;-76
2023/06/01 00:11:49;;;;;;;328.83;163.27;;;;;;;19.76;86.94;99642.56;302317;32;4197;-76
2023/06/01 00:12:00;;;;;;;331.15;161.43;;;;;;;19.75;86.70;99644.38;300832;32;1792;-76
2023/06/01 00:12:11;;;;;;;333.88;162.48;;;;;;;19.75;86.96;99647.03;299215;32;5135;-77
2023/06/01 00:12:21;;;;;;;330.30;164.27;;;;;;;19.75;86.48;99643.53;299859;32;4588;-77
2023/06/01 00:12:31;;;;;;;327.55;163.43;;;;;;;19.73;86.88;99645.47;299015;33;1483;-77
2023/06/01 00:12:42;;;;;;;328.27;164.47;;;;;;;19.73;86.68;99642.81;294580;33;3303;-77
2023/06/01 00:12:53;;;;;;;327.58;162.27;;;;;;;19.72;86.65;99649.94;297214;32;3539;-77
2023/06/01 00:13:03;;;;;;;326.90;162.02;;;;;;;19.70;86.65;99643.03;300025;32;877;-77
2023/06/01 00:13:14;;;;;;;325.80;160.00;;;;;;;19.71;86.79;99642.94;294892;33;1252;-77
2023/06/01 00:13:24;;;;;;;326.48;162.63;;;;;;;19.72;86.94;99646.41;294091;33;5423;-77
2023/06/01 00:13:35;;;;;;;326.80;163.87;;;;;;;19.71;86.72;99645.56;293356;33;5923;-77
2023/06/01 00:13:45;;;;;;;326.80;165.77;;;;;;;19.72;86.80;99651.72;292970;33;1183;-77
2023/06/01 00:13:56;;;;;;;327.03;164.83;;;;;;;19.70;86.79;99643.88;292982;33;5680;-76
2023/06/01 00:14:06;;;;;;;326.33;165.20;;;;;;;19.70;86.35;99641.22;290131;33;5705;-76
2023/06/01 00:14:18;;;;;;;326.17;165.03;;;;;;;19.69;86.73;99646.66;291928;33;1318;-76
2023/06/01 00:14:29;;;;;;;326.35;164.90;;;;;;;19.68;86.77;99644.97;291952;33;1430;-76
2023/06/01 00:14:39;;;;;;;325.27;164.43;;;;;;;19.67;86.52;99651.25;288754;34;6176;-76
2023/06/01 00:14:50;;;;;;;325.77;164.20;;;;;;;19.67;86.67;99645.94;286438;33;4729;-76
2023/06/01 00:15:00;;;;;;;328.25;163.27;;;;;;;19.67;86.90;99643.28;286337;34;876;-78
2023/06/01 00:15:11;;;;;;;330.57;165.10;;;;;;;19.66;86.54;99646.91;285736;34;4742;-77
2023/06/01 00:15:21;;;;;;;331.35;167.43;;;;;;;19.65;87.06;99650.53;283102;34;6291;-77
2023/06/01 00:15:31;;;;;;;332.10;169.27;;;;;;;19.65;86.96;99647.88;283521;34;1581;-77
2023/06/01 00:15:43;;;;;;;332.77;170.48;;;;;;;19.64;86.54;99643.50;283952;34;8320;-78
2023/06/01 00:15:54;;;;;;;334.40;168.95;;;;;;;19.60;86.58;99646.41;283236;34;8049;-77
2023/06/01 00:16:04;;;;;;;333.25;168.68;;;;;;;19.62;86.66;99648.09;280451;34;7676;-77
2023/06/01 00:16:15;;;;;;;333.50;168.05;;;;;;;19.61;86.83;99647.25;281699;35;1227;-76
2023/06/01 00:16:26;;;;;;;332.37;167.90;;;;;;;19.62;86.49;99645.44;285553;34;8530;-76
2023/06/01 00:16:36;;;;;;;331.27;168.32;;;;;;;19.61;86.96;99647.25;285897;34;8286;-76
2023/06/01 00:16:46;;;;;;;332.73;168.43;;;;;;;19.63;86.56;99652.44;286482;34;1540;-76
2023/06/01 00:16:57;;;;;;;332.23;169.20;;;;;;;19.62;86.68;99646.28;285420;34;8249;-76
2023/06/01 00:17:09;;;;;;;330.50;167.80;;;;;;;19.63;86.84;99649.78;285411;34;6068;-76
2023/06/01 00:19:34;;;;;;;318.67;150.99;;;;;;;19.59;86.77;99652.69;2500398;27;20718;-76
2023/06/01 00:19:45;;;;;;;327.05;158.73;;;;;;;19.59;87.13;99651.84;353010;28;883;-76
2023/06/01 00:19:55;;;;;;;324.98;158.95;;;;;;;19.57;87.04;99649.28;348693;28;1300;-76
2023/06/01 00:20:08;;;;;;;323.60;158.00;;;;;;;19.58;86.81;99645.69;347499;28;1046;-76
2023/06/01 00:20:18;;;;;;;323.48;157.38;;;;;;;19.58;87.03;99644.84;348827;28;978;-76
2023/06/01 00:20:28;;;;;;;325.57;157.07;;;;;;;19.57;87.14;99646.66;350168;28;1335;-76
2023/06/01 00:20:39;;;;;;;324.75;156.93;;;;;;;19.59;86.89;99647.38;349990;28;1338;-76
2023/06/01 00:20:50;;;;;;;325.67;158.10;;;;;;;19.58;87.30;99651.00;350296;28;733;-75
2023/06/01 00:21:01;;;;;;;327.88;160.95;;;;;;;19.59;86.95;99658.00;348583;28;1454;-75
2023/06/01 00:21:11;;;;;;;329.10;162.70;;;;;;;19.58;86.82;99652.81;350735;28;1308;-75
2023/06/01 00:21:22;;;;;;;327.20;162.57;;;;;;;19.59;87.03;99652.69;350163;28;1203;-75
2023/06/01 00:21:35;;;;;;;324.65;160.05;;;;;;;19.59;87.20;99650.03;350232;28;794;-75
2023/06/01 00:21:45;;;;;;;324.05;159.73;;;;;;;19.60;87.13;99654.38;348719;28;1289;-75
2023/06/01 00:21:56;;;;;;;324.30;160.83;;;;;;;19.60;87.17;99649.06;350382;28;1223;-75
2023/06/01 00:22:07;;;;;;;323.55;160.10;;;;;;;19.60;87.07;99646.41;350187;28;879;-75
2023/06/01 00:22:18;;;;;;;326.87;160.97;;;;;;;19.62;87.17;99650.75;349761;28;1339;-75
2023/06/01 00:22:28;;;;;;;327.85;161.07;;;;;;;19.62;86.87;99645.44;348830;28;811;-75
2023/06/01 00:22:39;;;;;;;328.63;162.93;;;;;;;19.60;86.92;99648.22;348879;28;851;-75
2023/06/01 00:22:49;;;;;;;330.93;165.60;;;;;;;19.60;87.14;99641.09;347511;28;889;-75
2023/06/01 00:23:00;;;;;;;330.33;164.93;;;;;;;19.59;86.85;99642.06;348457;28;908;-75
2023/06/01 00:23:10;;;;;;;330.80;163.73;;;;;;;19.62;86.84;99650.75;348944;28;1293;-75
2023/06/01 00:23:21;;;;;;;328.20;162.87;;;;;;;19.62;86.89;99648.09;348547;28;1485;-75
2023/06/01 00:23:32;;;;;;;328.52;164.23;;;;;;;19.62;86.77;99645.44;348759;28;1019;-75
2023/06/01 00:23:42;;;;;;;329.53;166.47;;;;;;;19.62;87.02;99648.09;348623;28;1317;-75
2023/06/01 00:23:53;;;;;;;329.88;167.13;;;;;;;19.60;87.13;99642.91;347400;28;1247;-75
2023/06/01 00:24:03;;;;;;;329.17;166.13;;;;;;;19.59;87.40;99652.69;348456;28;1304;-75
2023/06/01 00:24:14;;;;;;;329.27;164.20;;;;;;;19.59;87.42;99647.38;349912;28;1451;-77
2023/06/01 00:24:25;;;;;;;330.63;169.07;;;;;;;19.58;87.25;99643.03;348777;28;793;-76
2023/06/01 00:24:36;;;;;;;331.77;169.98;;;;;;;19.60;87.15;99642.91;351894;28;871;-76
2023/06/01 00:24:46;;;;;;;330.70;170.07;;;;;;;19.58;87.13;99645.69;350235;28;946;-77
2023/06/01 00:24:57;;;;;;;331.77;167.67;;;;;;;19.59;87.14;99642.06;348770;28;802;-76
2023/06/01 00:25:08;;;;;;;333.70;167.97;;;;;;;19.58;87.25;99645.69;345917;28;989;-76
2023/06/01 00:25:18;;;;;;;333.80;167.17;;;;;;;19.58;87.25;99643.03;341863;28;1573;-76
2023/06/01 00:25:28;;;;;;;332.42;167.75;;;;;;;19.57;86.83;99644.00;344033;28;1273;-76
2023/06/01 00:25:39;;;;;;;333.07;168.83;;;;;;;19.57;87.36;99648.44;342099;28;1625;-77
2023/06/01 00:25:49;;;;;;;335.30;169.13;;;;;;;19.57;87.39;99651.94;340670;29;814;-77
2023/06/01 00:26:00;;;;;;;332.75;169.23;;;;;;;19.55;87.52;99643.25;346233;28;1671;-76
2023/06/01 00:26:10;;;;;;;328.17;166.77;;;;;;;19.54;87.41;99641.56;345624;28;1335;-76
2023/06/01 00:26:21;;;;;;;324.83;165.43;;;;;;;19.53;87.50;99645.19;343343;28;1591;-76
2023/06/01 00:26:32;;;;;;;328.27;164.93;;;;;;;19.53;87.30;99642.53;348248;28;975;-76
2023/06/01 00:26:42;;;;;;;329.33;164.82;;;;;;;19.51;87.62;99638.31;346105;28;1286;-76
2023/06/01 00:26:52;;;;;;;329.13;165.53;;;;;;;19.50;87.61;99637.44;347280;28;871;-76
2023/06/01 00:27:03;;;;;;;327.60;165.40;;;;;;;19.51;87.36;99639.16;344801;28;876;-76
2023/06/01 00:27:13;;;;;;;326.85;164.80;;;;;;;19.52;87.54;99646.16;342066;28;929;-76
2023/06/01 00:27:24;;;;;;;329.77;165.30;;;;;;;19.50;87.59;99637.44;342899;28;1457;-77
2023/06/01 00:27:34;;;;;;;330.00;166.93;;;;;;;19.51;87.29;99641.81;339303;29;1459;-77
2023/06/01 00:27:45;;;;;;;329.97;167.73;;;;;;;19.53;87.61;99642.53;340075;28;1341;-77
2023/06/01 00:27:56;;;;;;;328.83;167.80;;;;;;;19.53;87.70;99650.50;339344;28;1386;-77
2023/06/01 00:28:06;;;;;;;331.42;169.48;;;;;;;19.53;87.65;99634.56;340747;29;957;-76
2023/06/01 00:28:16;;;;;;;334.07;173.13;;;;;;;19.53;87.76;99647.00;340525;29;1626;-76
2023/06/01 00:28:27;;;;;;;332.77;171.87;;;;;;;19.53;87.54;99641.69;337916;29;1418;-76
2023/06/01 00:28:37;;;;;;;328.07;169.60;;;;;;;19.53;87.68;99647.84;335511;29;940;-76
2023/06/01 00:28:48;;;;;;;327.10;167.10;;;;;;;19.54;87.41;99641.56;339312;29;1186;-76
2023/06/01 00:29:00;;;;;;;326.88;166.50;;;;;;;19.54;87.86;99644.22;340011;29;1487;-76
2023/06/01 00:29:12;;;;;;;325.95;165.23;;;;;;;19.53;87.42;99645.19;337442;29;1056;-76
2023/06/01 00:29:23;;;;;;;324.25;164.35;;;;;;;19.53;87.71;99642.53;334298;29;1580;-76
2023/06/01 00:29:33;;;;;;;324.52;165.32;;;;;;;19.54;87.85;99644.22;339313;29;1223;-76
2023/06/01 00:29:43;;;;;;;324.60;165.27;;;;;;;19.53;87.88;99642.53;338595;29;1654;-76
2023/06/01 00:29:56;;;;;;;326.75;166.38;;;;;;;19.54;87.66;99644.22;336396;29;1650;-76
2023/06/01 00:30:07;;;;;;;326.13;165.33;;;;;;;19.53;88.40;99642.53;335558;29;874;-76
2023/06/01 00:30:17;;;;;;;326.75;166.40;;;;;;;19.53;87.99;99639.03;334072;29;1420;-76
2023/06/01 00:30:28;;;;;;;328.05;165.38;;;;;;;19.53;87.82;99644.34;334768;29;2088;-76
2023/06/01 00:30:38;;;;;;;334.00;168.47;;;;;;;19.52;87.85;99645.31;334007;29;1666;-76
2023/06/01 00:30:49;;;;;;;333.85;167.82;;;;;;;19.52;87.63;99640.84;331427;29;1451;-76
2023/06/01 00:31:00;;;;;;;332.53;168.70;;;;;;;19.52;87.85;99645.31;331402;29;1197;-76
2023/06/01 00:31:10;;;;;;;330.80;167.45;;;;;;;19.52;87.94;99637.34;333634;29;1157;-76
2023/06/01 00:31:20;;;;;;;331.67;168.50;;;;;;;19.51;88.12;99644.47;336845;29;826;-76
2023/06/01 00:31:31;;;;;;;333.17;171.25;;;;;;;19.52;87.91;99646.16;331438;29;1824;-76
2023/06/01 00:31:41;;;;;;;332.80;173.17;;;;;;;19.51;88.12;99644.47;333272;29;2005;-75
2023/06/01 00:31:52;;;;;;;330.23;171.48;;;;;;;19.51;88.00;99638.31;336849;29;857;-76
2023/06/01 00:32:02;;;;;;;329.53;170.43;;;;;;;19.51;88.38;99643.63;332189;29;2508;-76
2023/06/01 00:32:12;;;;;;;329.92;168.90;;;;;;;19.49;87.87;99646.38;333540;29;2301;-76
2023/06/01 00:32:23;;;;;;;330.57;170.10;;;;;;;19.51;88.11;99638.31;331238;29;2566;-76
2023/06/01 00:32:33;;;;;;;330.27;170.33;;;;;;;19.51;88.20;99644.47;326563;30;1212;-76
2023/06/01 00:32:43;;;;;;;327.77;170.50;;;;;;;19.52;88.15;99640.00;326479;30;2647;-76
2023/06/01 00:32:54;;;;;;;326.67;167.73;;;;;;;19.51;88.28;99644.47;329867;29;1798;-76
2023/06/01 00:33:04;;;;;;;328.10;165.38;;;;;;;19.51;88.10;99644.47;329119;29;1424;-76
2023/06/01 00:33:15;;;;;;;328.63;164.90;;;;;;;19.51;88.05;99641.81;328360;30;1438;-76
2023/06/01 00:33:25;;;;;;;328.33;164.73;;;;;;;19.51;87.90;99639.16;327098;30;2033;-76
2023/06/01 00:33:36;;;;;;;325.83;164.83;;;;;;;19.50;88.43;99642.72;323232;30;883;-76
2023/06/01 00:33:46;;;;;;;329.83;166.95;;;;;;;19.51;88.03;99643.63;327075;30;2404;-76
2023/06/01 00:33:57;;;;;;;329.63;167.87;;;;;;;19.50;88.22;99637.44;324214;30;3120;-76
2023/06/01 00:34:07;;;;;;;331.83;169.90;;;;;;;19.50;87.85;99641.88;321556;30;1469;-76
2023/06/01 00:34:17;;;;;;;330.27;168.82;;;;;;;19.49;88.15;99643.72;313851;31;1330;-77
2023/06/01 00:34:28;;;;;;;331.93;170.33;;;;;;;19.50;88.13;99641.88;314830;31;3115;-76
2023/06/01 00:34:38;;;;;;;328.20;168.10;;;;;;;19.49;88.29;99643.72;314697;31;3556;-76
2023/06/01 00:34:48;;;;;;;328.13;167.40;;;;;;;19.50;88.31;99648.03;315181;31;850;-76
2023/06/01 00:34:59;;;;;;;330.67;167.67;;;;;;;19.49;88.33;99641.06;314743;31;3361;-76
2023/06/01 00:35:09;;;;;;;333.10;169.70;;;;;;;19.49;88.28;99645.53;312109;31;2948;-76
2023/06/01 00:35:20;;;;;;;330.53;171.37;;;;;;;19.50;88.23;99645.38;308398;32;816;-76
2023/06/01 00:35:30;;;;;;;329.65;171.48;;;;;;;19.50;88.15;99642.72;311182;31;2149;-76
2023/06/01 00:35:40;;;;;;;329.90;172.20;;;;;;;19.50;88.17;99647.19;311418;31;2887;-76
2023/06/01 00:35:51;;;;;;;329.13;171.68;;;;;;;19.50;88.10;99642.72;309759;31;1191;-76
2023/06/01 00:36:01;;;;;;;330.50;171.93;;;;;;;19.49;88.37;99651.69;303373;32;4025;-76
2023/06/01 00:36:12;;;;;;;331.17;171.33;;;;;;;19.49;88.31;99646.38;301265;32;3076;-76
2023/06/01 00:36:22;;;;;;;332.90;170.20;;;;;;;19.47;88.28;99645.66;301639;32;3543;-76
2023/06/01 00:36:33;;;;;;;332.90;170.07;;;;;;;19.49;88.21;99646.38;305164;32;890;-76
2023/06/01 00:36:44;;;;;;;332.53;168.23;;;;;;;19.48;88.03;99650.00;302575;32;4082;-76
2023/06/01 00:36:54;;;;;;;336.30;169.27;;;;;;;19.47;88.36;99642.16;302761;31;4875;-76
2023/06/01 00:37:05;;;;;;;333.63;168.30;;;;;;;19.45;88.33;99644.09;305135;32;1331;-76
2023/06/01 00:37:15;;;;;;;331.55;168.50;;;;;;;19.47;87.96;99648.31;308021;31;4272;-76
2023/06/01 00:37:25;;;;;;;329.53;167.90;;;;;;;19.45;88.31;99644.94;303345;32;3150;-76
2023/06/01 00:37:36;;;;;;;328.95;166.23;;;;;;;19.45;88.32;99644.94;301910;32;1278;-76
2023/06/01 00:37:46;;;;;;;329.90;167.20;;;;;;;19.45;88.10;99649.38;303153;32;3047;-76
2023/06/01 00:37:57;;;;;;;328.60;168.27;;;;;;;19.44;88.37;99637.94;300621;32;4578;-76
2023/06/01 00:38:07;;;;;;;332.27;169.25;;;;;;;19.44;88.05;99648.53;299147;32;1706;-76
2023/06/01 00:38:17;;;;;;;331.43;166.63;;;;;;;19.44;88.36;99639.75;297952;33;1437;-76
2023/06/01 00:38:28;;;;;;;329.42;162.32;;;;;;;19.44;88.01;99648.53;298295;32;6271;-76
2023/06/01 00:38:38;;;;;;;329.67;160.90;;;;;;;19.43;87.99;99644.19;297881;32;6576;-76
2023/06/01 00:38:48;;;;;;;329.92;160.23;;;;;;;19.44;88.52;99648.53;300094;32;829;-76
2023/06/01 00:39:02;;;;;;;332.00;161.63;;;;;;;19.43;88.29;99644.19;296464;33;5196;-76
2023/06/01 00:39:13;;;;;;;329.17;160.02;;;;;;;19.42;88.34;99645.16;293481;33;6394;-77
2023/06/01 00:39:23;;;;;;;328.57;156.93;;;;;;;19.43;88.16;99644.19;291206;33;6452;-77
2023/06/01 00:39:33;;;;;;;326.10;155.32;;;;;;;19.43;88.17;99649.50;295918;33;1463;-77
2023/06/01 00:39:44;;;;;;;327.10;156.37;;;;;;;19.42;87.91;99645.16;293757;33;4370;-76
2023/06/01 00:39:54;;;;;;;332.40;157.43;;;;;;;19.42;88.51;99649.63;292755;33;4748;-76
2023/06/01 00:40:06;;;;;;;334.65;159.60;;;;;;;19.42;88.25;99653.13;290109;34;1207;-76
2023/06/01 00:40:16;;;;;;;333.50;158.63;;;;;;;19.44;88.24;99647.69;286411;34;8999;-76
2023/06/01 00:40:26;;;;;;;327.17;156.25;;;;;;;19.42;88.00;99644.31;285647;34;13634;-76
2023/06/01 00:40:37;;;;;;;325.33;155.93;;;;;;;19.42;88.33;99647.81;286271;34;1296;-76
2023/06/01 00:40:51;;;;;;;325.85;157.05;;;;;;;19.43;87.92;99648.66;285331;34;4385;-76
2023/06/01 00:41:01;;;;;;;328.98;158.27;;;;;;;19.42;87.93;99652.28;282803;34;8494;-76
2023/06/01 00:42:54;;;;;;;319.49;144.83;;;;;;;19.43;88.20;99646.00;2501607;27;20590;-75
2023/06/01 00:43:04;;;;;;;320.50;152.27;;;;;;;19.43;87.91;99646.84;351928;28;844;-75
2023/06/01 00:43:14;;;;;;;322.80;153.50;;;;;;;19.45;88.11;99650.25;346007;28;1371;-75
2023/06/01 00:43:25;;;;;;;325.83;155.40;;;;;;;19.44;87.83;99651.19;344801;28;887;-75
2023/06/01 00:43:35;;;;;;;325.33;155.30;;;;;;;19.45;88.10;99652.91;346136;28;788;-75
2023/06/01 00:43:46;;;;;;;324.58;154.18;;;;;;;19.44;88.11;99651.19;346126;28;769;-75
2023/06/01 00:43:56;;;;;;;326.30;155.03;;;;;;;19.44;87.90;99653.84;344585;28;1320;-75
2023/06/01 00:44:06;;;;;;;325.35;153.95;;;;;;;19.44;88.16;99653.00;346014;28;943;-75
2023/06/01 00:44:17;;;;;;;323.40;155.10;;;;;;;19.44;88.06;99650.34;347338;28;1279;-75
2023/06/01 00:44:27;;;;;;;321.23;154.63;;;;;;;19.43;87.97;99649.50;348913;28;891;-75
2023/06/01 00:44:37;;;;;;;321.63;155.32;;;;;;;19.43;88.30;99654.81;347471;28;939;-75
2023/06/01 00:44:48;;;;;;;323.77;156.23;;;;;;;19.39;88.20;99652.50;347454;28;1004;-75
2023/06/01 00:44:59;;;;;;;324.42;156.07;;;;;;;19.37;88.46;99649.97;347644;28;911;-75
2023/06/01 00:45:10;;;;;;;324.03;155.57;;;;;;;19.37;88.52;99646.47;350108;28;783;-75
2023/06/01 00:45:20;;;;;;;326.15;157.65;;;;;;;19.36;88.58;99647.44;350205;28;1628;-75
2023/06/01 00:45:30;;;;;;;326.67;158.43;;;;;;;19.36;88.40;99648.28;349352;28;1352;-75
2023/06/01 00:45:41;;;;;;;327.13;159.30;;;;;;;19.37;88.57;99651.78;348883;28;741;-75
2023/06/01 00:45:51;;;;;;;323.92;155.15;;;;;;;19.36;88.48;99645.63;347774;28;1250;-75
2023/06/01 00:46:02;;;;;;;321.03;153.73;;;;;;;19.36;88.50;99645.63;347415;28;1224;-75
2023/06/01 00:46:14;;;;;;;321.30;154.03;;;;;;;19.36;88.30;99650.94;347202;28;1417;-75
2023/06/01 00:46:24;;;;;;;319.80;154.58;;;;;;;19.35;88.52;99643.94;347294;28;1347;-75
2023/06/01 00:46:35;;;;;;;321.20;155.70;;;;;;;19.36;88.53;99644.78;348072;28;1382;-75
2023/06/01 00:46:45;;;;;;;323.55;157.15;;;;;;;19.36;88.61;99656.25;347156;28;1321;-75
2023/06/01 00:46:55;;;;;;;326.07;157.63;;;;;;;19.37;88.64;99642.00;347349;28;1305;-75
2023/06/01 00:47:07;;;;;;;326.53;156.53;;;;;;;19.35;88.51;99656.38;347233;28;1405;-75
2023/06/01 00:47:17;;;;;;;324.58;156.43;;;;;;;19.35;88.88;99643.94;347995;28;995;-75
2023/06/01 00:47:28;;;;;;;323.93;155.63;;;;;;;19.35;88.78;99659.88;345948;28;854;-75
2023/06/01 00:47:44;;;;;;;323.52;155.00;;;;;;;19.36;88.97;99655.41;343330;28;1368;-75
2023/06/01 00:48:00;;;;;;;321.52;155.38;;;;;;;19.34;89.14;99655.53;345976;28;1560;-75
2023/06/01 00:48:11;;;;;;;323.13;157.02;;;;;;;19.33;89.02;99656.47;346120;28;1079;-75
2023/06/01 00:48:23;;;;;;;324.30;157.10;;;;;;;19.32;88.80;99644.16;343229;28;1256;-76
2023/06/01 00:48:33;;;;;;;322.90;156.88;;;;;;;19.34;88.59;99646.72;344498;28;950;-76
2023/06/01 00:48:43;;;;;;;323.37;157.03;;;;;;;19.34;88.84;99646.72;344247;28;1544;-76
2023/06/01 00:48:54;;;;;;;323.17;157.90;;;;;;;19.34;89.02;99658.16;341921;28;1216;-76
2023/06/01 00:49:04;;;;;;;327.60;157.83;;;;;;;19.34;89.06;99650.22;340524;28;936;-76
2023/06/01 00:49:15;;;;;;;327.58;158.23;;;;;;;19.33;88.84;99648.50;341078;28;1367;-76
2023/06/01 00:49:26;;;;;;;327.63;157.27;;;;;;;19.34;89.06;99652.03;343413;28;1381;-76
2023/06/01 00:49:36;;;;;;;321.85;156.65;;;;;;;19.33;89.25;99651.16;341847;28;1176;-76
2023/06/01 00:49:46;;;;;;;322.20;155.60;;;;;;;19.33;88.74;99655.63;341054;28;1068;-76
2023/06/01 00:49:57;;;;;;;322.40;155.05;;;;;;;19.33;88.91;99651.16;342348;28;1392;-75
2023/06/01 00:50:09;;;;;;;324.03;155.43;;;;;;;19.33;88.84;99656.47;339311;29;1186;-75
2023/06/01 00:50:19;;;;;;;324.90;156.88;;;;;;;19.32;88.86;99644.16;344666;28;929;-75
2023/06/01 00:50:30;;;;;;;325.30;157.82;;;;;;;19.32;88.92;99652.13;342498;28;1270;-75
2023/06/01 00:50:41;;;;;;;325.50;158.70;;;;;;;19.32;88.84;99644.16;341918;28;1201;-75
2023/06/01 00:50:52;;;;;;;326.63;160.50;;;;;;;19.32;88.67;99656.59;340630;28;1239;-75
2023/06/01 00:51:02;;;;;;;329.37;158.97;;;;;;;19.31;88.61;99653.09;339217;29;1439;-75
2023/06/01 00:51:14;;;;;;;329.20;157.75;;;;;;;19.32;88.99;99649.47;338132;29;912;-75
2023/06/01 00:51:25;;;;;;;329.00;158.80;;;;;;;19.31;88.88;99638.97;334153;29;1427;-75
2023/06/01 00:51:36;;;;;;;326.83;160.63;;;;;;;19.31;88.92;99653.09;332771;29;1649;-75
2023/06/01 00:51:46;;;;;;;325.23;159.88;;;;;;;19.31;88.87;99645.13;331127;29;1985;-75
2023/06/01 00:51:57;;;;;;;326.13;161.73;;;;;;;19.30;88.79;99651.41;331673;29;953;-75
2023/06/01 00:52:07;;;;;;;326.10;159.70;;;;;;;19.28;88.72;99653.31;332161;29;1243;-75
2023/06/01 00:52:18;;;;;;;325.70;160.50;;;;;;;19.28;88.65;99648.03;335399;29;1143;-75
2023/06/01 00:52:28;;;;;;;326.47;159.27;;;;;;;19.27;88.95;99646.31;335438;29;1180;-75
2023/06/01 00:52:38;;;;;;;327.08;160.80;;;;;;;19.26;88.74;99650.78;335576;29;1082;-75
2023/06/01 00:52:50;;;;;;;326.87;160.97;;;;;;;19.24;89.06;99651.88;333912;29;1472;-75
2023/06/01 00:53:01;;;;;;;323.85;159.02;;;;;;;19.24;88.88;99649.22;330052;29;1867;-75
2023/06/01 00:53:16;;;;;;;325.40;159.85;;;;;;;19.23;89.02;99652.81;327998;30;843;-75
2023/06/01 00:53:26;;;;;;;326.88;159.43;;;;;;;19.22;89.17;99651.13;329267;29;1571;-75